sensor_id;sensor_type;location;lat;lon;timestamp;pressure;altitude;pressure_sealevel;temperature;humidity
70555;BME280;58104;52.744;15.242;2023-04-25T00:01:04;99805.83;;;19.10;40.20
70555;BME280;58104;52.744;15.242;2023-04-25T00:03:29;99805.71;;;19.29;39.35
70555;BME280;58104;52.744;15.242;2023-04-25T00:05:54;99813.07;;;19.42;39.59
70555;BME280;58104;52.744;15.242;2023-04-25T00:08:20;99802.35;;;19.37;39.22
70555;BME280;58104;52.744;15.242;2023-04-25T00:10:45;99805.91;;;19.47;39.34
70555;BME280;58104;52.744;15.242;2023-04-25T00:13:10;99806.32;;;19.62;38.84
70555;BME280;58104;52.744;15.242;2023-04-25T00:15:36;99800.40;;;19.59;38.99
70555;BME280;58104;52.744;15.242;2023-04-25T00:18:01;99799.68;;;19.60;38.97
70555;BME280;58104;52.744;15.242;2023-04-25T00:20:27;99798.56;;;19.48;39.30
70555;BME280;58104;52.744;15.242;2023-04-25T00:22:52;99799.04;;;19.62;38.95
70555;BME280;58104;52.744;15.242;2023-04-25T00:25:18;99799.29;;;19.46;38.62
70555;BME280;58104;52.744;15.242;2023-04-25T00:27:43;99797.47;;;19.66;38.90
70555;BME280;58104;52.744;15.242;2023-04-25T00:30:09;99800.33;;;19.70;39.08
70555;BME280;58104;52.744;15.242;2023-04-25T00:32:34;99798.60;;;19.71;38.50
70555;BME280;58104;52.744;15.242;2023-04-25T00:34:59;99799.84;;;19.78;38.72
70555;BME280;58104;52.744;15.242;2023-04-25T00:37:25;99797.24;;;19.89;38.39
70555;BME280;58104;52.744;15.242;2023-04-25T00:39:50;99799.79;;;19.84;39.23
70555;BME280;58104;52.744;15.242;2023-04-25T00:42:16;99804.61;;;19.58;39.56
70555;BME280;58104;52.744;15.242;2023-04-25T00:44:42;99805.97;;;19.45;39.45
70555;BME280;58104;52.744;15.242;2023-04-25T00:47:06;99813.58;;;19.44;39.61
70555;BME280;58104;52.744;15.242;2023-04-25T00:49:32;99808.72;;;19.33;40.11
70555;BME280;58104;52.744;15.242;2023-04-25T00:51:57;99812.29;;;19.27;40.25
70555;BME280;58104;52.744;15.242;2023-04-25T00:54:23;99812.27;;;19.32;40.06
70555;BME280;58104;52.744;15.242;2023-04-25T00:56:48;99810.56;;;19.27;39.72
70555;BME280;58104;52.744;15.242;2023-04-25T00:59:15;99808.47;;;19.30;39.91
70555;BME280;58104;52.744;15.242;2023-04-25T01:01:39;99808.04;;;19.22;40.06
70555;BME280;58104;52.744;15.242;2023-04-25T01:04:04;99805.84;;;19.21;40.27
70555;BME280;58104;52.744;15.242;2023-04-25T01:06:30;99806.22;;;19.35;40.99
70555;BME280;58104;52.744;15.242;2023-04-25T01:08:56;99808.48;;;19.57;40.29
70555;BME280;58104;52.744;15.242;2023-04-25T01:11:21;99813.21;;;19.51;40.71
70555;BME280;58104;52.744;15.242;2023-04-25T01:13:46;99813.39;;;19.60;40.89
70555;BME280;58104;52.744;15.242;2023-04-25T01:16:11;99811.97;;;19.67;41.22
70555;BME280;58104;52.744;15.242;2023-04-25T01:18:38;99812.98;;;19.80;41.22
70555;BME280;58104;52.744;15.242;2023-04-25T01:21:07;99810.44;;;19.65;41.40
70555;BME280;58104;52.744;15.242;2023-04-25T01:23:28;99809.57;;;19.62;40.82
70555;BME280;58104;52.744;15.242;2023-04-25T01:25:53;99804.71;;;19.59;42.16
70555;BME280;58104;52.744;15.242;2023-04-25T01:28:19;99805.51;;;19.57;41.82
70555;BME280;58104;52.744;15.242;2023-04-25T01:30:44;99804.38;;;19.54;41.85
70555;BME280;58104;52.744;15.242;2023-04-25T01:33:10;99804.90;;;19.50;41.69
70555;BME280;58104;52.744;15.242;2023-04-25T01:35:35;99800.71;;;19.54;41.78
70555;BME280;58104;52.744;15.242;2023-04-25T01:38:00;99806.21;;;19.52;42.06
70555;BME280;58104;52.744;15.242;2023-04-25T01:40:27;99801.28;;;19.49;41.95
70555;BME280;58104;52.744;15.242;2023-04-25T01:42:51;99803.12;;;19.40;41.64
70555;BME280;58104;52.744;15.242;2023-04-25T01:45:17;99804.65;;;19.68;42.04
70555;BME280;58104;52.744;15.242;2023-04-25T01:47:42;99806.59;;;19.69;42.23
70555;BME280;58104;52.744;15.242;2023-04-25T01:50:08;99806.21;;;19.70;41.53
70555;BME280;58104;52.744;15.242;2023-04-25T01:52:33;99803.74;;;19.67;41.95
70555;BME280;58104;52.744;15.242;2023-04-25T01:54:59;99804.44;;;19.55;41.39
70555;BME280;58104;52.744;15.242;2023-04-25T01:57:24;99803.59;;;19.49;41.95
70555;BME280;58104;52.744;15.242;2023-04-25T01:59:50;99804.49;;;19.51;42.36
70555;BME280;58104;52.744;15.242;2023-04-25T02:02:14;99802.54;;;19.47;41.84
70555;BME280;58104;52.744;15.242;2023-04-25T02:04:40;99804.81;;;19.46;41.81
70555;BME280;58104;52.744;15.242;2023-04-25T02:07:05;99806.59;;;19.39;41.67
70555;BME280;58104;52.744;15.242;2023-04-25T02:09:31;99805.84;;;19.40;42.24
70555;BME280;58104;52.744;15.242;2023-04-25T02:11:56;99808.33;;;19.39;42.20
70555;BME280;58104;52.744;15.242;2023-04-25T02:14:22;99808.76;;;19.38;41.94
70555;BME280;58104;52.744;15.242;2023-04-25T02:16:47;99803.85;;;19.45;41.50
70555;BME280;58104;52.744;15.242;2023-04-25T02:19:13;99802.82;;;19.33;42.27
70555;BME280;58104;52.744;15.242;2023-04-25T02:21:38;99803.80;;;19.56;42.16
70555;BME280;58104;52.744;15.242;2023-04-25T02:24:04;99800.42;;;19.42;42.13
70555;BME280;58104;52.744;15.242;2023-04-25T02:26:29;99804.33;;;19.47;42.40
70555;BME280;58104;52.744;15.242;2023-04-25T02:28:54;99800.68;;;19.53;42.16
70555;BME280;58104;52.744;15.242;2023-04-25T02:31:19;99805.51;;;19.63;41.94
70555;BME280;58104;52.744;15.242;2023-04-25T02:33:46;99800.68;;;19.67;41.29
70555;BME280;58104;52.744;15.242;2023-04-25T02:36:10;99805.04;;;19.54;42.08
70555;BME280;58104;52.744;15.242;2023-04-25T02:38:36;99801.38;;;19.60;41.71
70555;BME280;58104;52.744;15.242;2023-04-25T02:41:01;99802.39;;;19.60;41.60
70555;BME280;58104;52.744;15.242;2023-04-25T02:43:26;99801.78;;;19.56;41.95
70555;BME280;58104;52.744;15.242;2023-04-25T02:45:52;99798.87;;;19.57;41.97
70555;BME280;58104;52.744;15.242;2023-04-25T02:48:17;99796.12;;;19.63;41.53
70555;BME280;58104;52.744;15.242;2023-04-25T02:50:43;99797.06;;;19.73;41.80
70555;BME280;58104;52.744;15.242;2023-04-25T02:53:08;99796.20;;;19.73;41.69
70555;BME280;58104;52.744;15.242;2023-04-25T02:55:34;99789.53;;;19.61;41.83
70555;BME280;58104;52.744;15.242;2023-04-25T02:57:59;99787.68;;;19.50;42.39
70555;BME280;58104;52.744;15.242;2023-04-25T03:00:25;99783.69;;;19.41;42.15
70555;BME280;58104;52.744;15.242;2023-04-25T03:02:51;99783.56;;;19.44;42.88
70555;BME280;58104;52.744;15.242;2023-04-25T03:05:15;99781.79;;;19.41;42.28
70555;BME280;58104;52.744;15.242;2023-04-25T03:07:41;99780.16;;;19.44;42.44
70555;BME280;58104;52.744;15.242;2023-04-25T03:10:07;99785.06;;;19.60;42.22
70555;BME280;58104;52.744;15.242;2023-04-25T03:12:32;99784.22;;;19.54;43.06
70555;BME280;58104;52.744;15.242;2023-04-25T03:14:57;99778.82;;;19.36;42.90
70555;BME280;58104;52.744;15.242;2023-04-25T03:17:22;99779.08;;;19.35;43.59
70555;BME280;58104;52.744;15.242;2023-04-25T03:19:48;99777.28;;;19.34;43.37
70555;BME280;58104;52.744;15.242;2023-04-25T03:22:13;99777.25;;;19.36;43.55
70555;BME280;58104;52.744;15.242;2023-04-25T03:24:38;99777.86;;;19.37;43.00
70555;BME280;58104;52.744;15.242;2023-04-25T03:27:04;99778.55;;;19.38;42.99
70555;BME280;58104;52.744;15.242;2023-04-25T03:29:29;99778.93;;;19.43;42.94
70555;BME280;58104;52.744;15.242;2023-04-25T03:31:55;99775.37;;;19.41;42.86
70555;BME280;58104;52.744;15.242;2023-04-25T03:34:20;99775.94;;;19.33;42.89
70555;BME280;58104;52.744;15.242;2023-04-25T03:36:46;99773.41;;;19.24;42.65
70555;BME280;58104;52.744;15.242;2023-04-25T03:39:11;99774.81;;;19.25;43.12
70555;BME280;58104;52.744;15.242;2023-04-25T03:41:36;99781.84;;;19.38;42.94
70555;BME280;58104;52.744;15.242;2023-04-25T03:44:02;99783.22;;;19.34;42.66
70555;BME280;58104;52.744;15.242;2023-04-25T03:46:27;99784.57;;;19.25;43.19
70555;BME280;58104;52.744;15.242;2023-04-25T03:48:53;99780.78;;;19.31;42.87
70555;BME280;58104;52.744;15.242;2023-04-25T03:51:18;99782.50;;;19.28;43.23
70555;BME280;58104;52.744;15.242;2023-04-25T03:53:44;99782.47;;;19.43;42.38
70555;BME280;58104;52.744;15.242;2023-04-25T03:56:09;99783.39;;;19.40;43.17
70555;BME280;58104;52.744;15.242;2023-04-25T03:58:34;99785.00;;;19.34;43.38
70555;BME280;58104;52.744;15.242;2023-04-25T04:01:01;99787.41;;;19.28;43.56
70555;BME280;58104;52.744;15.242;2023-04-25T04:03:25;99789.51;;;19.29;44.29
70555;BME280;58104;52.744;15.242;2023-04-25T04:05:51;99789.90;;;19.42;43.10
70555;BME280;58104;52.744;15.242;2023-04-25T04:08:17;99793.94;;;19.45;43.81
70555;BME280;58104;52.744;15.242;2023-04-25T04:10:42;99792.95;;;19.46;43.90
70555;BME280;58104;52.744;15.242;2023-04-25T04:13:07;99793.10;;;19.45;44.09
70555;BME280;58104;52.744;15.242;2023-04-25T04:15:33;99795.19;;;19.42;44.27
70555;BME280;58104;52.744;15.242;2023-04-25T04:17:58;99798.61;;;19.34;43.60
70555;BME280;58104;52.744;15.242;2023-04-25T04:20:24;99798.80;;;19.37;43.23
70555;BME280;58104;52.744;15.242;2023-04-25T04:22:49;99805.38;;;19.43;44.06
70555;BME280;58104;52.744;15.242;2023-04-25T04:25:15;99805.18;;;19.44;43.10
70555;BME280;58104;52.744;15.242;2023-04-25T04:27:40;99808.19;;;19.35;42.02
70555;BME280;58104;52.744;15.242;2023-04-25T04:30:07;99811.53;;;19.35;40.41
70555;BME280;58104;52.744;15.242;2023-04-25T04:32:31;99811.17;;;19.37;39.84
70555;BME280;58104;52.744;15.242;2023-04-25T04:34:56;99810.41;;;19.43;39.78
70555;BME280;58104;52.744;15.242;2023-04-25T04:37:21;99809.29;;;19.31;39.80
70555;BME280;58104;52.744;15.242;2023-04-25T04:39:47;99810.80;;;19.26;39.97
70555;BME280;58104;52.744;15.242;2023-04-25T04:42:12;99814.08;;;19.32;39.59
70555;BME280;58104;52.744;15.242;2023-04-25T04:44:38;99814.30;;;19.23;39.10
70555;BME280;58104;52.744;15.242;2023-04-25T04:47:03;99812.35;;;19.26;39.09
70555;BME280;58104;52.744;15.242;2023-04-25T04:49:29;99816.68;;;19.38;38.59
70555;BME280;58104;52.744;15.242;2023-04-25T04:51:54;99817.72;;;19.26;38.62
70555;BME280;58104;52.744;15.242;2023-04-25T04:54:20;99816.15;;;19.20;39.14
70555;BME280;58104;52.744;15.242;2023-04-25T04:56:45;99812.70;;;19.29;38.51
70555;BME280;58104;52.744;15.242;2023-04-25T04:59:10;99812.78;;;19.24;38.47
70555;BME280;58104;52.744;15.242;2023-04-25T05:01:36;99811.37;;;19.13;38.66
70555;BME280;58104;52.744;15.242;2023-04-25T05:04:01;99813.14;;;19.08;38.54
70555;BME280;58104;52.744;15.242;2023-04-25T05:06:27;99816.66;;;19.08;38.46
70555;BME280;58104;52.744;15.242;2023-04-25T05:08:52;99812.88;;;19.00;38.40
70555;BME280;58104;52.744;15.242;2023-04-25T05:11:18;99817.31;;;18.94;39.57
70555;BME280;58104;52.744;15.242;2023-04-25T05:13:43;99816.37;;;18.78;39.67
70555;BME280;58104;52.744;15.242;2023-04-25T05:16:09;99816.07;;;18.72;40.06
70555;BME280;58104;52.744;15.242;2023-04-25T05:18:34;99813.03;;;18.63;40.21
70555;BME280;58104;52.744;15.242;2023-04-25T05:20:59;99814.63;;;18.61;40.06
70555;BME280;58104;52.744;15.242;2023-04-25T05:23:25;99814.45;;;18.72;40.45
70555;BME280;58104;52.744;15.242;2023-04-25T05:25:50;99817.38;;;19.00;39.80
70555;BME280;58104;52.744;15.242;2023-04-25T05:28:16;99816.62;;;19.13;38.27
70555;BME280;58104;52.744;15.242;2023-04-25T05:30:41;99818.20;;;19.23;37.94
70555;BME280;58104;52.744;15.242;2023-04-25T05:33:06;99819.36;;;19.25;38.19
70555;BME280;58104;52.744;15.242;2023-04-25T05:35:32;99816.21;;;18.77;36.55
70555;BME280;58104;52.744;15.242;2023-04-25T05:37:57;99816.72;;;18.65;37.33
70555;BME280;58104;52.744;15.242;2023-04-25T05:40:22;99819.03;;;18.68;37.69
70555;BME280;58104;52.744;15.242;2023-04-25T05:42:48;99818.42;;;18.54;36.32
70555;BME280;58104;52.744;15.242;2023-04-25T05:45:13;99820.17;;;18.74;37.81
70555;BME280;58104;52.744;15.242;2023-04-25T05:47:39;99821.73;;;18.77;36.87
70555;BME280;58104;52.744;15.242;2023-04-25T05:50:05;99823.64;;;18.90;36.74
70555;BME280;58104;52.744;15.242;2023-04-25T05:52:30;99826.63;;;18.38;37.53
70555;BME280;58104;52.744;15.242;2023-04-25T05:54:55;99827.11;;;18.13;37.58
70555;BME280;58104;52.744;15.242;2023-04-25T05:57:22;99829.32;;;18.23;39.06
70555;BME280;58104;52.744;15.242;2023-04-25T05:59:45;99832.05;;;18.62;37.95
70555;BME280;58104;52.744;15.242;2023-04-25T06:02:11;99831.50;;;18.80;37.19
70555;BME280;58104;52.744;15.242;2023-04-25T06:04:36;99830.88;;;18.84;37.63
70555;BME280;58104;52.744;15.242;2023-04-25T06:07:02;99829.56;;;18.77;37.31
70555;BME280;58104;52.744;15.242;2023-04-25T06:09:27;99835.96;;;18.90;37.25
70555;BME280;58104;52.744;15.242;2023-04-25T06:11:53;99833.62;;;19.05;37.71
70555;BME280;58104;52.744;15.242;2023-04-25T06:14:18;99832.10;;;18.53;36.61
70555;BME280;58104;52.744;15.242;2023-04-25T06:16:44;99834.27;;;18.60;36.79
70555;BME280;58104;52.744;15.242;2023-04-25T06:19:09;99834.01;;;18.07;36.93
70555;BME280;58104;52.744;15.242;2023-04-25T06:21:34;99839.77;;;17.61;38.90
70555;BME280;58104;52.744;15.242;2023-04-25T06:23:59;99839.41;;;18.05;39.44
70555;BME280;58104;52.744;15.242;2023-04-25T06:26:25;99835.31;;;18.18;38.76
70555;BME280;58104;52.744;15.242;2023-04-25T06:28:50;99842.85;;;18.23;37.59
70555;BME280;58104;52.744;15.242;2023-04-25T06:31:16;99840.98;;;18.03;37.99
70555;BME280;58104;52.744;15.242;2023-04-25T06:33:41;99839.43;;;17.65;38.70
70555;BME280;58104;52.744;15.242;2023-04-25T06:36:07;99839.61;;;18.25;38.15
70555;BME280;58104;52.744;15.242;2023-04-25T06:38:32;99838.03;;;18.66;38.17
70555;BME280;58104;52.744;15.242;2023-04-25T06:40:57;99833.08;;;18.84;36.52
70555;BME280;58104;52.744;15.242;2023-04-25T06:43:23;99840.22;;;18.28;36.79
70555;BME280;58104;52.744;15.242;2023-04-25T06:45:48;99836.41;;;18.45;38.06
70555;BME280;58104;52.744;15.242;2023-04-25T06:48:14;99841.61;;;18.96;38.45
70555;BME280;58104;52.744;15.242;2023-04-25T06:50:39;99838.02;;;19.41;37.64
70555;BME280;58104;52.744;15.242;2023-04-25T06:53:04;99842.98;;;19.71;37.37
70555;BME280;58104;52.744;15.242;2023-04-25T06:55:30;99849.52;;;19.95;37.08
70555;BME280;58104;52.744;15.242;2023-04-25T06:57:55;99851.86;;;20.21;36.75
70555;BME280;58104;52.744;15.242;2023-04-25T07:00:21;99850.33;;;20.49;36.29
70555;BME280;58104;52.744;15.242;2023-04-25T07:02:47;99838.80;;;20.30;36.71
70555;BME280;58104;52.744;15.242;2023-04-25T07:05:11;99850.22;;;20.24;36.91
70555;BME280;58104;52.744;15.242;2023-04-25T07:07:36;99851.99;;;20.30;37.10
70555;BME280;58104;52.744;15.242;2023-04-25T07:10:02;99856.91;;;20.52;36.90
70555;BME280;58104;52.744;15.242;2023-04-25T07:12:27;99851.87;;;20.67;36.89
70555;BME280;58104;52.744;15.242;2023-04-25T07:14:52;99849.43;;;20.90;36.72
70555;BME280;58104;52.744;15.242;2023-04-25T07:17:18;99850.53;;;21.00;36.72
70555;BME280;58104;52.744;15.242;2023-04-25T07:19:43;99855.15;;;21.09;36.80
70555;BME280;58104;52.744;15.242;2023-04-25T07:22:08;99845.13;;;21.15;36.65
70555;BME280;58104;52.744;15.242;2023-04-25T07:24:34;99858.63;;;21.19;36.79
70555;BME280;58104;52.744;15.242;2023-04-25T07:26:59;99851.04;;;21.30;36.68
70555;BME280;58104;52.744;15.242;2023-04-25T07:29:25;99847.31;;;21.31;36.75
70555;BME280;58104;52.744;15.242;2023-04-25T07:31:50;99853.56;;;21.15;36.88
70555;BME280;58104;52.744;15.242;2023-04-25T07:34:16;99854.62;;;21.11;36.73
70555;BME280;58104;52.744;15.242;2023-04-25T07:36:41;99854.46;;;20.94;36.92
70555;BME280;58104;52.744;15.242;2023-04-25T07:39:06;99864.82;;;21.06;36.72
70555;BME280;58104;52.744;15.242;2023-04-25T07:41:32;99856.51;;;21.13;36.77
70555;BME280;58104;52.744;15.242;2023-04-25T07:43:57;99846.77;;;21.44;36.32
70555;BME280;58104;52.744;15.242;2023-04-25T07:46:24;99852.37;;;21.59;35.96
70555;BME280;58104;52.744;15.242;2023-04-25T07:48:48;99858.47;;;21.67;35.94
70555;BME280;58104;52.744;15.242;2023-04-25T07:51:13;99862.44;;;21.90;35.70
70555;BME280;58104;52.744;15.242;2023-04-25T07:53:39;99867.51;;;21.97;35.64
70555;BME280;58104;52.744;15.242;2023-04-25T07:56:05;99860.17;;;22.07;35.65
70555;BME280;58104;52.744;15.242;2023-04-25T07:58:30;99855.85;;;22.15;35.58
70555;BME280;58104;52.744;15.242;2023-04-25T08:00:55;99855.25;;;22.29;35.41
70555;BME280;58104;52.744;15.242;2023-04-25T08:03:20;99863.71;;;22.37;35.37
70555;BME280;58104;52.744;15.242;2023-04-25T08:05:46;99861.84;;;22.46;35.33
70555;BME280;58104;52.744;15.242;2023-04-25T08:08:11;99862.50;;;22.55;35.25
70555;BME280;58104;52.744;15.242;2023-04-25T08:10:37;99869.44;;;22.19;35.25
70555;BME280;58104;52.744;15.242;2023-04-25T08:13:02;99870.74;;;21.82;33.81
70555;BME280;58104;52.744;15.242;2023-04-25T08:15:28;99877.94;;;21.94;33.68
70555;BME280;58104;52.744;15.242;2023-04-25T08:17:53;99866.29;;;21.73;34.24
70555;BME280;58104;52.744;15.242;2023-04-25T08:20:18;99871.82;;;22.04;33.99
70555;BME280;58104;52.744;15.242;2023-04-25T08:22:43;99875.95;;;21.97;34.06
70555;BME280;58104;52.744;15.242;2023-04-25T08:25:08;99888.02;;;20.95;34.49
70555;BME280;58104;52.744;15.242;2023-04-25T08:27:34;99895.04;;;21.07;34.22
70555;BME280;58104;52.744;15.242;2023-04-25T08:29:59;99895.05;;;20.62;34.37
70555;BME280;58104;52.744;15.242;2023-04-25T08:32:25;99898.87;;;20.52;34.64
70555;BME280;58104;52.744;15.242;2023-04-25T08:34:50;99905.85;;;20.58;34.30
70555;BME280;58104;52.744;15.242;2023-04-25T08:37:15;99899.26;;;20.72;33.80
70555;BME280;58104;52.744;15.242;2023-04-25T08:39:41;99909.35;;;20.36;34.22
70555;BME280;58104;52.744;15.242;2023-04-25T08:42:07;99909.58;;;20.59;33.83
70555;BME280;58104;52.744;15.242;2023-04-25T08:44:33;99912.81;;;20.39;33.84
70555;BME280;58104;52.744;15.242;2023-04-25T08:46:57;99918.09;;;19.97;34.31
70555;BME280;58104;52.744;15.242;2023-04-25T08:49:23;99924.12;;;20.12;34.28
70555;BME280;58104;52.744;15.242;2023-04-25T08:51:48;99921.47;;;20.58;34.20
70555;BME280;58104;52.744;15.242;2023-04-25T08:54:14;99925.92;;;21.08;33.88
70555;BME280;58104;52.744;15.242;2023-04-25T08:56:41;99931.64;;;21.69;33.44
70555;BME280;58104;52.744;15.242;2023-04-25T08:59:04;99938.77;;;21.84;33.24
70555;BME280;58104;52.744;15.242;2023-04-25T09:01:29;99944.81;;;21.99;33.22
70555;BME280;58104;52.744;15.242;2023-04-25T09:03:57;99943.96;;;21.73;33.78
70555;BME280;58104;52.744;15.242;2023-04-25T09:06:21;99945.13;;;21.75;33.78
70555;BME280;58104;52.744;15.242;2023-04-25T09:08:46;99942.39;;;22.00;33.66
70555;BME280;58104;52.744;15.242;2023-04-25T09:11:12;99946.10;;;21.55;34.43
70555;BME280;58104;52.744;15.242;2023-04-25T09:13:36;99949.09;;;21.59;34.65
70555;BME280;58104;52.744;15.242;2023-04-25T09:16:02;99955.31;;;21.77;34.54
70555;BME280;58104;52.744;15.242;2023-04-25T09:18:29;99960.98;;;21.81;34.50
70555;BME280;58104;52.744;15.242;2023-04-25T09:20:53;99960.45;;;21.60;34.09
70555;BME280;58104;52.744;15.242;2023-04-25T09:23:19;99958.30;;;21.87;34.36
70555;BME280;58104;52.744;15.242;2023-04-25T09:25:44;99964.86;;;21.93;34.10
70555;BME280;58104;52.744;15.242;2023-04-25T09:28:09;99962.54;;;21.74;34.64
70555;BME280;58104;52.744;15.242;2023-04-25T09:30:36;99964.60;;;21.70;34.73
70555;BME280;58104;52.744;15.242;2023-04-25T09:33:04;99964.76;;;22.01;34.66
70555;BME280;58104;52.744;15.242;2023-04-25T09:35:25;99960.13;;;22.20;34.54
70555;BME280;58104;52.744;15.242;2023-04-25T09:37:51;99964.04;;;22.30;34.57
70555;BME280;58104;52.744;15.242;2023-04-25T09:40:18;99966.24;;;22.34;34.72
70555;BME280;58104;52.744;15.242;2023-04-25T09:42:41;99968.11;;;22.41;34.69
70555;BME280;58104;52.744;15.242;2023-04-25T09:45:07;99971.19;;;22.47;34.80
70555;BME280;58104;52.744;15.242;2023-04-25T09:47:37;99973.47;;;22.51;34.83
70555;BME280;58104;52.744;15.242;2023-04-25T09:49:58;99973.05;;;22.54;34.80
70555;BME280;58104;52.744;15.242;2023-04-25T09:52:24;99976.16;;;22.54;34.91
70555;BME280;58104;52.744;15.242;2023-04-25T09:54:49;99975.79;;;22.54;35.24
70555;BME280;58104;52.744;15.242;2023-04-25T09:57:15;99973.86;;;22.55;35.16
70555;BME280;58104;52.744;15.242;2023-04-25T09:59:44;99979.86;;;22.17;35.30
70555;BME280;58104;52.744;15.242;2023-04-25T10:02:06;99974.76;;;21.96;34.30
70555;BME280;58104;52.744;15.242;2023-04-25T10:04:34;99972.85;;;21.68;33.65
70555;BME280;58104;52.744;15.242;2023-04-25T10:06:56;99978.77;;;21.76;33.25
70555;BME280;58104;52.744;15.242;2023-04-25T10:09:21;99973.89;;;21.62;33.44
70555;BME280;58104;52.744;15.242;2023-04-25T10:11:46;99975.60;;;21.59;33.38
70555;BME280;58104;52.744;15.242;2023-04-25T10:14:12;99976.31;;;21.48;33.20
70555;BME280;58104;52.744;15.242;2023-04-25T10:16:37;99992.71;;;21.42;33.08
70555;BME280;58104;52.744;15.242;2023-04-25T10:19:02;99999.37;;;21.42;32.95
70555;BME280;58104;52.744;15.242;2023-04-25T10:21:28;99991.44;;;21.36;33.02
70555;BME280;58104;52.744;15.242;2023-04-25T10:23:53;99989.49;;;21.45;33.22
70555;BME280;58104;52.744;15.242;2023-04-25T10:26:19;99993.10;;;21.64;33.27
70555;BME280;58104;52.744;15.242;2023-04-25T10:31:09;99988.82;;;21.68;33.20
70555;BME280;58104;52.744;15.242;2023-04-25T10:33:36;99985.89;;;21.85;32.97
70555;BME280;58104;52.744;15.242;2023-04-25T10:36:09;99985.13;;;21.91;32.79
70555;BME280;58104;52.744;15.242;2023-04-25T10:38:26;99986.61;;;22.02;32.63
70555;BME280;58104;52.744;15.242;2023-04-25T10:45:51;99987.48;;;20.75;33.68
70555;BME280;58104;52.744;15.242;2023-04-25T10:50:37;99995.85;;;19.98;34.48
70555;BME280;58104;52.744;15.242;2023-04-25T10:55:23;100001.98;;;19.66;35.42
70555;BME280;58104;52.744;15.242;2023-04-25T10:57:50;100006.04;;;19.74;35.68
70555;BME280;58104;52.744;15.242;2023-04-25T11:00:16;100004.50;;;19.44;36.26
70555;BME280;58104;52.744;15.242;2023-04-25T11:02:44;99996.85;;;19.61;36.49
70555;BME280;58104;52.744;15.242;2023-04-25T11:05:06;100004.18;;;19.96;36.14
70555;BME280;58104;52.744;15.242;2023-04-25T11:07:34;100005.72;;;19.96;36.19
70555;BME280;58104;52.744;15.242;2023-04-25T11:09:55;100006.71;;;19.98;36.49
70555;BME280;58104;52.744;15.242;2023-04-25T11:12:21;100005.52;;;20.24;35.75
70555;BME280;58104;52.744;15.242;2023-04-25T11:14:46;100007.81;;;20.21;35.78
70555;BME280;58104;52.744;15.242;2023-04-25T11:17:12;100010.91;;;20.24;36.10
70555;BME280;58104;52.744;15.242;2023-04-25T11:19:37;100009.15;;;19.89;36.69
70555;BME280;58104;52.744;15.242;2023-04-25T11:22:03;100009.62;;;19.85;36.72
70555;BME280;58104;52.744;15.242;2023-04-25T11:24:29;100010.21;;;19.84;36.18
70555;BME280;58104;52.744;15.242;2023-04-25T11:26:54;100016.56;;;19.86;36.13
70555;BME280;58104;52.744;15.242;2023-04-25T11:29:22;100016.27;;;20.02;36.02
70555;BME280;58104;52.744;15.242;2023-04-25T11:31:45;100017.38;;;20.02;36.85
70555;BME280;58104;52.744;15.242;2023-04-25T11:34:10;100018.84;;;19.99;36.85
70555;BME280;58104;52.744;15.242;2023-04-25T11:36:38;100033.64;;;19.56;37.90
70555;BME280;58104;52.744;15.242;2023-04-25T11:39:01;100033.44;;;19.28;38.21
70555;BME280;58104;52.744;15.242;2023-04-25T11:41:26;100028.99;;;19.21;38.27
70555;BME280;58104;52.744;15.242;2023-04-25T11:43:51;100025.78;;;19.36;37.89
70555;BME280;58104;52.744;15.242;2023-04-25T11:46:16;100031.15;;;19.16;38.22
70555;BME280;58104;52.744;15.242;2023-04-25T11:48:42;100031.46;;;19.14;38.17
70555;BME280;58104;52.744;15.242;2023-04-25T11:51:08;100028.38;;;19.34;37.93
70555;BME280;58104;52.744;15.242;2023-04-25T11:53:33;100029.20;;;19.26;37.71
70555;BME280;58104;52.744;15.242;2023-04-25T11:55:58;100028.10;;;19.36;37.86
70555;BME280;58104;52.744;15.242;2023-04-25T11:58:23;100027.06;;;19.31;37.99
70555;BME280;58104;52.744;15.242;2023-04-25T12:00:49;100025.84;;;19.24;37.86
70555;BME280;58104;52.744;15.242;2023-04-25T12:03:14;100025.00;;;19.18;37.90
70555;BME280;58104;52.744;15.242;2023-04-25T12:05:40;100024.51;;;19.41;37.48
70555;BME280;58104;52.744;15.242;2023-04-25T12:08:10;100024.69;;;19.46;37.45
70555;BME280;58104;52.744;15.242;2023-04-25T12:10:31;100030.30;;;19.58;37.23
70555;BME280;58104;52.744;15.242;2023-04-25T12:12:56;100029.15;;;19.48;37.27
70555;BME280;58104;52.744;15.242;2023-04-25T12:15:24;100028.39;;;19.71;36.98
70555;BME280;58104;52.744;15.242;2023-04-25T12:17:49;100025.82;;;20.26;36.06
70555;BME280;58104;52.744;15.242;2023-04-25T12:20:14;100025.93;;;20.39;35.42
70555;BME280;58104;52.744;15.242;2023-04-25T12:22:40;100021.45;;;20.30;35.43
70555;BME280;58104;52.744;15.242;2023-04-25T12:25:04;100034.33;;;19.96;36.33
70555;BME280;58104;52.744;15.242;2023-04-25T12:27:31;100034.92;;;19.79;35.64
70555;BME280;58104;52.744;15.242;2023-04-25T12:29:55;100034.33;;;19.56;34.85
70555;BME280;58104;52.744;15.242;2023-04-25T12:32:20;100035.60;;;19.60;34.79
70555;BME280;58104;52.744;15.242;2023-04-25T12:34:45;100036.28;;;19.65;34.97
70555;BME280;58104;52.744;15.242;2023-04-25T12:37:10;100039.62;;;19.52;35.21
70555;BME280;58104;52.744;15.242;2023-04-25T12:39:35;100034.72;;;19.34;35.15
70555;BME280;58104;52.744;15.242;2023-04-25T12:42:01;100038.24;;;19.46;35.04
70555;BME280;58104;52.744;15.242;2023-04-25T12:44:26;100036.32;;;19.44;34.82
70555;BME280;58104;52.744;15.242;2023-04-25T12:46:52;100035.94;;;19.64;34.18
70555;BME280;58104;52.744;15.242;2023-04-25T12:49:18;100036.22;;;19.33;34.47